createdAt,value
2017-08-08T00:01:18.508Z,5.93
2017-08-08T00:03:48.294Z,5.43
2017-08-08T00:06:19.407Z,5.77
2017-08-08T00:08:47.943Z,5.90
2017-08-08T00:11:20.316Z,5.83
2017-08-08T00:13:51.568Z,6.03
2017-08-08T00:16:23.168Z,7.10
2017-08-08T00:18:53.636Z,6.30
2017-08-08T00:21:23.870Z,6.87
2017-08-08T00:23:53.902Z,5.97
2017-08-08T00:26:22.312Z,5.90
2017-08-08T00:28:50.776Z,6.37
2017-08-08T00:31:19.236Z,6.23
2017-08-08T00:33:48.339Z,6.10
2017-08-08T00:36:16.776Z,5.93
2017-08-08T00:38:45.229Z,6.53
2017-08-08T00:41:14.413Z,6.40
2017-08-08T00:43:42.845Z,5.80
2017-08-08T00:46:11.304Z,6.20
2017-08-08T00:48:39.718Z,6.30
2017-08-08T00:51:07.809Z,6.50
2017-08-08T00:53:36.259Z,6.17
2017-08-08T00:56:05.365Z,6.07
2017-08-08T00:58:33.785Z,5.57
2017-08-08T01:01:02.998Z,5.93
2017-08-08T01:03:31.413Z,5.87
2017-08-08T01:05:59.857Z,6.00
2017-08-08T01:08:29.124Z,6.67
2017-08-08T01:10:57.544Z,5.40
2017-08-08T01:13:25.984Z,6.07
2017-08-08T01:15:54.405Z,5.60
2017-08-08T01:18:22.855Z,5.70
2017-08-08T01:20:51.261Z,6.27
2017-08-08T01:23:19.737Z,5.80
2017-08-08T01:25:48.156Z,5.87
2017-08-08T01:28:16.585Z,5.73
2017-08-08T01:30:45.702Z,5.50
2017-08-08T01:33:14.117Z,6.33
2017-08-08T01:35:42.534Z,6.10
2017-08-08T01:38:11.761Z,5.90
2017-08-08T01:40:40.185Z,5.50
2017-08-08T01:43:08.596Z,6.17
2017-08-08T01:45:37.043Z,5.80
2017-08-08T01:48:05.452Z,5.90
2017-08-08T01:50:33.877Z,5.70
2017-08-08T01:53:02.314Z,5.90
2017-08-08T01:55:30.736Z,5.70
2017-08-08T01:57:59.164Z,5.73
2017-08-08T02:00:27.606Z,5.63
2017-08-08T02:02:55.663Z,5.23
2017-08-08T02:05:23.732Z,5.30
2017-08-08T02:07:52.169Z,5.40
2017-08-08T02:10:20.584Z,5.20
2017-08-08T02:12:48.648Z,5.17
2017-08-08T02:15:16.752Z,5.70
2017-08-08T02:17:45.172Z,5.43
2017-08-08T02:20:13.583Z,5.33
2017-08-08T02:22:42.014Z,5.80
2017-08-08T02:25:11.195Z,5.80
2017-08-08T02:27:39.588Z,5.83
2017-08-08T02:30:08.467Z,5.57
2017-08-08T02:32:37.632Z,5.70
2017-08-08T02:35:05.701Z,5.53
2017-08-08T02:37:34.820Z,5.70
2017-08-08T02:40:03.262Z,5.40
2017-08-08T02:42:32.367Z,5.23
2017-08-08T02:45:00.792Z,5.80
2017-08-08T02:47:29.992Z,5.73
2017-08-08T02:49:58.442Z,5.50
2017-08-08T02:52:26.942Z,5.53
2017-08-08T02:54:56.118Z,5.67
2017-08-08T02:57:24.566Z,5.10
2017-08-08T02:59:53.021Z,5.80
2017-08-08T03:02:21.469Z,5.63
2017-08-08T03:04:49.985Z,6.10
2017-08-08T03:07:18.400Z,5.60
2017-08-08T03:09:46.815Z,5.30
2017-08-08T03:12:16.009Z,6.47
2017-08-08T03:14:45.240Z,6.00
2017-08-08T03:17:13.661Z,6.20
2017-08-08T03:19:42.074Z,5.60
2017-08-08T03:22:11.309Z,6.30
2017-08-08T03:24:39.729Z,5.77
2017-08-08T03:27:08.148Z,5.60
2017-08-08T03:29:36.588Z,6.30
2017-08-08T03:32:05.262Z,6.47
2017-08-08T03:34:33.674Z,6.50
2017-08-08T03:37:02.878Z,6.10
2017-08-08T03:39:31.309Z,6.13
2017-08-08T03:41:59.737Z,6.03
2017-08-08T03:44:28.188Z,5.60
2017-08-08T03:46:56.592Z,6.20
2017-08-08T03:49:25.004Z,5.13
2017-08-08T03:51:53.438Z,5.23
2017-08-08T03:54:22.662Z,5.50
2017-08-08T03:56:51.061Z,6.00
2017-08-08T03:59:19.537Z,5.53
2017-08-08T04:01:47.960Z,5.73
2017-08-08T04:04:16.376Z,6.20
2017-08-08T04:06:44.820Z,6.27
2017-08-08T04:09:13.235Z,5.60
2017-08-08T04:11:41.653Z,5.27
2017-08-08T04:14:10.113Z,5.93
2017-08-08T04:16:38.522Z,6.30
2017-08-08T04:19:06.936Z,6.90
2017-08-08T04:21:35.383Z,5.80
2017-08-08T04:24:03.776Z,5.97
2017-08-08T04:26:32.957Z,5.87
2017-08-08T04:29:01.389Z,5.67
2017-08-08T04:31:29.825Z,6.03
2017-08-08T04:33:58.269Z,6.47
2017-08-08T04:36:26.717Z,5.90
2017-08-08T04:38:55.128Z,6.00
2017-08-08T04:41:23.636Z,5.93
2017-08-08T04:43:52.091Z,7.90
2017-08-08T04:48:56.780Z,7.70
2017-08-08T04:51:25.624Z,8.10
2017-08-08T04:53:54.047Z,6.90
2017-08-08T04:56:22.508Z,6.53
2017-08-08T04:58:50.951Z,5.70
2017-08-08T05:01:19.359Z,6.07
2017-08-08T05:03:47.804Z,6.07
2017-08-08T05:06:16.234Z,6.80
2017-08-08T05:08:45.451Z,5.63
2017-08-08T05:11:14.647Z,5.67
2017-08-08T05:13:43.082Z,5.87
2017-08-08T05:16:11.497Z,5.57
2017-08-08T05:18:39.977Z,6.50
2017-08-08T05:21:08.465Z,5.53
2017-08-08T05:23:37.640Z,5.80
2017-08-08T05:26:06.849Z,5.37
2017-08-08T05:28:36.036Z,5.70
2017-08-08T05:31:05.234Z,5.53
2017-08-08T05:33:34.465Z,6.50
2017-08-08T05:36:02.897Z,6.77
2017-08-08T05:38:31.309Z,6.00
2017-08-08T05:40:59.748Z,6.00
2017-08-08T05:43:28.164Z,5.53
2017-08-08T05:45:56.597Z,5.73
2017-08-08T05:48:25.058Z,5.50
2017-08-08T05:50:53.478Z,5.70
2017-08-08T05:53:22.658Z,5.80
2017-08-08T05:55:51.101Z,5.50
2017-08-08T05:58:19.510Z,5.70
2017-08-08T06:00:47.933Z,6.20
2017-08-08T06:03:16.384Z,5.40
2017-08-08T06:05:44.816Z,5.50
2017-08-08T06:08:13.234Z,6.40
2017-08-08T06:10:41.666Z,6.27
2017-08-08T06:13:10.101Z,5.80
2017-08-08T06:15:38.513Z,5.97
2017-08-08T06:18:06.949Z,5.50
2017-08-08T06:20:35.361Z,7.60
2017-08-08T06:23:03.794Z,17.70
2017-08-08T06:25:32.232Z,8.07
2017-08-08T06:28:00.644Z,5.10
2017-08-08T06:30:29.058Z,6.20
2017-08-08T06:32:58.269Z,6.20
2017-08-08T06:35:27.448Z,5.70
2017-08-08T06:37:56.625Z,5.60
2017-08-08T06:40:25.063Z,5.60
2017-08-08T06:42:53.468Z,5.33
2017-08-08T06:45:21.882Z,5.80
2017-08-08T06:47:51.084Z,5.43
2017-08-08T06:50:20.369Z,5.50
2017-08-08T06:52:48.789Z,5.83
2017-08-08T06:55:17.436Z,5.90
2017-08-08T06:57:46.621Z,5.60
2017-08-08T07:00:15.036Z,5.83
2017-08-08T07:02:44.260Z,5.40
2017-08-08T07:05:12.783Z,5.60
2017-08-08T07:07:41.210Z,5.97
2017-08-08T07:10:09.649Z,5.90
2017-08-08T07:12:38.093Z,5.40
2017-08-08T07:15:06.627Z,5.93
2017-08-08T07:17:35.319Z,5.67
2017-08-08T07:20:03.979Z,6.10
2017-08-08T07:22:32.398Z,5.03
2017-08-08T07:25:00.884Z,5.77
2017-08-08T07:27:29.510Z,5.60
2017-08-08T07:29:58.047Z,5.37
2017-08-08T07:32:26.487Z,5.90
2017-08-08T07:34:55.677Z,6.40
2017-08-08T07:37:25.029Z,5.90
2017-08-08T07:39:53.521Z,6.03
2017-08-08T07:42:21.956Z,5.73
2017-08-08T07:44:51.195Z,5.30
2017-08-08T07:47:20.326Z,5.90
2017-08-08T07:49:51.812Z,5.33
2017-08-08T07:52:20.746Z,5.63
2017-08-08T07:54:49.575Z,6.67
2017-08-08T07:57:18.342Z,5.60
2017-08-08T07:59:46.886Z,5.30
2017-08-08T08:02:15.300Z,5.77
2017-08-08T08:04:43.737Z,7.03
2017-08-08T08:07:12.188Z,6.30
2017-08-08T08:09:40.754Z,6.57
2017-08-08T08:12:09.973Z,5.63
2017-08-08T08:14:38.598Z,5.50
2017-08-08T08:17:07.251Z,5.60
2017-08-08T08:19:35.661Z,5.83
2017-08-08T08:22:04.216Z,5.87
2017-08-08T08:24:32.711Z,5.23
2017-08-08T08:27:01.222Z,6.37
2017-08-08T08:29:29.716Z,6.00
2017-08-08T08:31:58.952Z,5.73
2017-08-08T08:34:27.424Z,5.87
2017-08-08T08:36:58.250Z,5.97
2017-08-08T08:39:26.793Z,5.70
2017-08-08T08:41:55.213Z,5.97
2017-08-08T08:44:23.672Z,5.93
2017-08-08T08:46:52.598Z,5.97
2017-08-08T08:49:21.036Z,6.37
2017-08-08T08:51:50.355Z,6.17
2017-08-08T08:54:20.328Z,5.90
2017-08-08T08:56:48.752Z,5.97
2017-08-08T08:59:17.219Z,6.00
2017-08-08T09:01:45.637Z,5.90
2017-08-08T09:04:14.108Z,5.60
2017-08-08T09:06:42.620Z,5.80
2017-08-08T09:09:11.032Z,6.87
2017-08-08T09:11:39.452Z,6.03
2017-08-08T09:14:07.893Z,6.00
2017-08-08T09:16:36.298Z,6.57
2017-08-08T09:19:04.721Z,6.20
2017-08-08T09:21:33.169Z,6.80
2017-08-08T09:24:01.607Z,6.50
2017-08-08T09:26:30.784Z,6.27
2017-08-08T09:28:59.993Z,6.50
2017-08-08T09:31:29.139Z,5.50
2017-08-08T09:33:57.561Z,7.70
2017-08-08T09:36:26.195Z,6.67
2017-08-08T09:38:54.813Z,6.53
2017-08-08T09:41:24.813Z,6.33
2017-08-08T09:43:53.400Z,5.80
2017-08-08T09:46:21.819Z,6.10
2017-08-08T09:48:50.496Z,5.80
2017-08-08T09:51:19.828Z,6.20
2017-08-08T09:53:48.257Z,6.40
2017-08-08T09:56:17.444Z,6.63
2017-08-08T09:58:45.911Z,6.20
2017-08-08T10:01:14.589Z,6.80
2017-08-08T10:03:44.237Z,6.60
2017-08-08T10:06:13.697Z,6.30
2017-08-08T10:08:42.206Z,6.60
2017-08-08T10:11:10.752Z,6.53
2017-08-08T10:13:39.012Z,7.20
2017-08-08T10:16:07.429Z,7.23
2017-08-08T10:18:36.187Z,6.93
2017-08-08T10:21:05.039Z,7.30
2017-08-08T10:23:33.558Z,7.03
2017-08-08T10:26:01.982Z,7.90
2017-08-08T10:28:31.192Z,8.20
2017-08-08T10:31:00.380Z,6.93
2017-08-08T10:33:29.568Z,9.30
2017-08-08T10:35:58.794Z,9.00
2017-08-08T10:38:27.243Z,8.43
2017-08-08T10:40:56.425Z,9.00
2017-08-08T10:43:24.869Z,8.07
2017-08-08T10:45:53.287Z,8.20
2017-08-08T10:48:21.854Z,8.07
2017-08-08T10:50:50.344Z,8.17
2017-08-08T10:53:18.994Z,8.37
2017-08-08T10:55:47.525Z,7.53
2017-08-08T10:58:17.187Z,7.60
2017-08-08T11:00:45.967Z,7.60
2017-08-08T11:03:14.562Z,8.53
2017-08-08T11:05:43.093Z,9.10
2017-08-08T11:08:12.279Z,9.20
2017-08-08T11:10:40.813Z,9.97
2017-08-08T11:13:09.546Z,10.70
2017-08-08T11:15:37.957Z,10.30
2017-08-08T11:18:06.412Z,9.73
2017-08-08T11:20:35.645Z,9.60
2017-08-08T11:23:04.118Z,9.73
2017-08-08T11:25:32.578Z,9.73
2017-08-08T11:28:01.887Z,9.30
2017-08-08T11:30:30.324Z,10.83
2017-08-08T11:32:58.744Z,10.10
2017-08-08T11:35:27.191Z,9.53
2017-08-08T11:37:56.391Z,8.73
2017-08-08T11:40:25.573Z,10.47
2017-08-08T11:42:54.027Z,9.90
2017-08-08T11:45:22.455Z,10.80
2017-08-08T11:47:51.648Z,10.10
2017-08-08T11:50:20.876Z,10.80
2017-08-08T11:52:49.289Z,11.10
2017-08-08T11:55:17.715Z,11.50
2017-08-08T11:57:46.169Z,11.50
2017-08-08T12:00:14.403Z,11.20
2017-08-08T12:02:42.822Z,12.00
2017-08-08T12:05:11.296Z,11.60
2017-08-08T12:07:39.754Z,12.30
2017-08-08T12:10:08.186Z,11.70
2017-08-08T12:12:36.629Z,12.00
2017-08-08T12:15:05.049Z,14.07
2017-08-08T12:17:33.472Z,13.63
2017-08-08T12:20:01.918Z,10.53
2017-08-08T12:22:30.356Z,11.10
2017-08-08T12:24:59.563Z,11.60
2017-08-08T12:27:28.857Z,11.10
2017-08-08T12:29:57.289Z,11.00
2017-08-08T12:32:25.745Z,11.87
2017-08-08T12:34:54.216Z,12.57
2017-08-08T12:37:22.648Z,12.00
2017-08-08T12:39:51.068Z,12.03
2017-08-08T12:42:19.597Z,13.00
2017-08-08T12:44:48.023Z,12.30
2017-08-08T12:47:17.564Z,12.30
2017-08-08T12:49:46.029Z,11.80
2017-08-08T12:52:14.535Z,10.70
2017-08-08T12:54:42.960Z,10.43
2017-08-08T12:57:12.430Z,10.50
2017-08-08T12:59:40.940Z,12.77
2017-08-08T13:02:10.145Z,11.50
2017-08-08T13:04:39.542Z,11.47
2017-08-08T13:07:08.733Z,11.80
2017-08-08T13:09:37.920Z,12.47
2017-08-08T13:12:06.382Z,13.43
2017-08-08T13:14:35.170Z,13.20
2017-08-08T13:17:03.597Z,14.27
2017-08-08T13:19:32.344Z,13.20
2017-08-08T13:22:00.858Z,13.07
2017-08-08T13:24:30.044Z,12.80
2017-08-08T13:26:59.284Z,13.50
2017-08-08T13:29:27.823Z,13.00
2017-08-08T13:31:57.150Z,12.87
2017-08-08T13:34:25.581Z,13.40
2017-08-08T13:36:54.627Z,12.70
2017-08-08T13:39:23.077Z,12.70
2017-08-08T13:41:52.293Z,12.67
2017-08-08T13:44:20.745Z,12.17
2017-08-08T13:46:49.941Z,12.27
2017-08-08T13:49:19.259Z,12.60
2017-08-08T13:51:47.698Z,10.77
2017-08-08T13:54:16.113Z,12.23
2017-08-08T13:56:44.553Z,10.77
2017-08-08T13:59:12.992Z,9.70
2017-08-08T14:01:41.407Z,8.80
2017-08-08T14:04:09.881Z,8.40
2017-08-08T14:06:38.304Z,7.63
2017-08-08T14:09:07.426Z,8.70
2017-08-08T14:11:35.856Z,7.40
2017-08-08T14:14:04.257Z,8.20
2017-08-08T14:16:32.679Z,5.83
2017-08-08T14:19:01.109Z,6.73
2017-08-08T14:21:30.299Z,5.77
2017-08-08T14:23:59.481Z,6.27
2017-08-08T14:26:27.918Z,5.97
2017-08-08T14:28:57.025Z,5.70
2017-08-08T14:31:25.432Z,6.10
2017-08-08T14:33:53.894Z,5.80
2017-08-08T14:36:22.305Z,5.70
2017-08-08T14:38:51.493Z,6.57
2017-08-08T14:41:20.693Z,5.07
2017-08-08T14:43:49.881Z,5.37
2017-08-08T14:46:18.302Z,5.47
2017-08-08T14:48:46.741Z,4.90
2017-08-08T14:51:15.160Z,4.90
2017-08-08T14:53:43.565Z,5.10
2017-08-08T14:56:12.009Z,7.17
2017-08-08T14:58:40.424Z,5.30
2017-08-08T15:01:08.864Z,5.87
2017-08-08T15:03:37.316Z,5.03
2017-08-08T15:06:06.492Z,5.47
2017-08-08T15:08:34.897Z,4.67
2017-08-08T15:11:04.119Z,6.80
2017-08-08T15:13:34.002Z,6.30
2017-08-08T15:16:02.429Z,5.53
2017-08-08T15:18:30.860Z,6.00
2017-08-08T15:21:00.048Z,7.93
2017-08-08T15:23:29.230Z,4.90
2017-08-08T15:25:57.693Z,4.90
2017-08-08T15:28:26.112Z,5.60
2017-08-08T15:30:55.292Z,4.90
2017-08-08T15:33:23.734Z,4.67
2017-08-08T15:35:52.157Z,5.73
2017-08-08T15:38:21.338Z,4.30
2017-08-08T15:40:49.785Z,6.87
2017-08-08T15:43:18.217Z,17.87
2017-08-08T15:45:47.408Z,12.70
2017-08-08T15:48:16.612Z,21.03
2017-08-08T15:50:45.805Z,13.33
2017-08-08T15:53:14.984Z,6.27
2017-08-08T15:55:43.438Z,5.83
2017-08-08T15:58:11.848Z,7.27
2017-08-08T16:00:40.272Z,6.20
2017-08-08T16:03:08.727Z,10.43
2017-08-08T16:05:37.924Z,9.40
2017-08-08T16:08:07.017Z,5.17
2017-08-08T16:10:36.224Z,7.00
2017-08-08T16:13:04.652Z,5.33
2017-08-08T16:15:33.076Z,5.50
2017-08-08T16:18:02.296Z,5.57
2017-08-08T16:20:30.718Z,6.00
2017-08-08T16:22:59.147Z,6.57
2017-08-08T16:25:27.580Z,9.20
2017-08-08T16:27:56.005Z,8.23
2017-08-08T16:30:24.440Z,55.90
2017-08-08T16:32:53.576Z,48.47
2017-08-08T16:35:22.840Z,11.20
2017-08-08T16:37:51.257Z,15.23
2017-08-08T16:40:19.721Z,14.10
2017-08-08T16:42:48.163Z,11.77
2017-08-08T16:45:16.573Z,10.90
2017-08-08T16:47:45.062Z,9.50
2017-08-08T16:50:13.641Z,8.43
2017-08-08T16:52:42.228Z,7.90
2017-08-08T16:55:10.933Z,8.03
2017-08-08T16:57:39.498Z,19.80
2017-08-08T17:00:08.085Z,11.60
2017-08-08T17:02:36.588Z,13.03
2017-08-08T17:05:05.030Z,10.50
2017-08-08T17:07:34.201Z,7.50
2017-08-08T17:10:03.681Z,6.53
2017-08-08T17:12:32.597Z,6.60
2017-08-08T17:15:01.922Z,4.93
2017-08-08T17:17:30.604Z,8.10
2017-08-08T17:19:59.021Z,4.93
2017-08-08T17:22:27.526Z,6.30
2017-08-08T17:24:55.972Z,5.07
2017-08-08T17:27:24.397Z,4.17
2017-08-08T17:29:53.672Z,4.30
2017-08-08T17:32:22.164Z,3.53
2017-08-08T17:34:50.666Z,3.43
2017-08-08T17:37:19.071Z,5.53
2017-08-08T17:39:47.523Z,3.70
2017-08-08T17:42:16.694Z,3.70
2017-08-08T17:44:45.118Z,4.23
2017-08-08T17:47:13.572Z,8.87
2017-08-08T17:49:42.755Z,8.87
2017-08-08T17:52:11.190Z,8.40
2017-08-08T17:54:39.625Z,19.53
2017-08-08T17:57:08.843Z,28.63
2017-08-08T17:59:37.267Z,8.97
2017-08-08T18:02:05.832Z,6.27
2017-08-08T18:04:34.253Z,5.10
2017-08-08T18:07:02.692Z,5.00
2017-08-08T18:09:31.120Z,4.93
2017-08-08T18:12:00.316Z,15.13
2017-08-08T18:14:29.426Z,4.80
2017-08-08T18:16:58.639Z,4.87
2017-08-08T18:19:28.511Z,4.50
2017-08-08T18:21:56.934Z,5.00
2017-08-08T18:24:26.824Z,5.40
2017-08-08T18:26:56.009Z,5.00
2017-08-08T18:29:24.436Z,9.87
2017-08-08T18:31:52.899Z,7.77
2017-08-08T18:34:21.319Z,9.70
2017-08-08T18:36:49.835Z,7.77
2017-08-08T18:39:19.041Z,6.23
2017-08-08T18:41:47.477Z,4.73
2017-08-08T18:44:15.905Z,4.90
2017-08-08T18:46:44.366Z,8.97
2017-08-08T18:49:13.565Z,16.70
2017-08-08T18:51:42.784Z,9.20
2017-08-08T18:54:11.222Z,7.80
2017-08-08T18:56:39.649Z,9.37
2017-08-08T18:59:08.093Z,6.20
2017-08-08T19:01:37.396Z,5.57
2017-08-08T19:04:05.916Z,6.63
2017-08-08T19:06:34.352Z,5.13
2017-08-08T19:09:03.116Z,5.50
2017-08-08T19:11:31.580Z,5.00
2017-08-08T19:14:01.043Z,6.80
2017-08-08T19:16:30.275Z,6.10
2017-08-08T19:18:58.709Z,11.73
2017-08-08T19:21:27.888Z,8.60
2017-08-08T19:23:56.335Z,7.90
2017-08-08T19:26:24.798Z,6.10
2017-08-08T19:28:53.231Z,6.60
2017-08-08T19:31:21.685Z,7.00
2017-08-08T19:33:50.104Z,8.87
2017-08-08T19:36:19.287Z,6.37
2017-08-08T19:38:48.513Z,12.20
2017-08-08T19:41:16.938Z,8.23
2017-08-08T19:43:45.364Z,8.03
2017-08-08T19:46:13.808Z,6.60
2017-08-08T19:48:42.232Z,7.67
2017-08-08T19:51:10.665Z,8.10
2017-08-08T19:53:39.124Z,7.93
2017-08-08T19:56:07.546Z,6.97
2017-08-08T19:58:36.753Z,6.63
2017-08-08T20:01:05.224Z,7.20
2017-08-08T20:03:34.408Z,6.40
2017-08-08T20:06:04.498Z,6.57
2017-08-08T20:08:32.958Z,6.13
2017-08-08T20:11:01.377Z,6.10
2017-08-08T20:13:29.862Z,16.97
2017-08-08T20:15:58.805Z,17.17
2017-08-08T20:18:27.280Z,19.20
2017-08-08T20:20:57.464Z,14.20
2017-08-08T20:23:27.262Z,16.10
2017-08-08T20:25:55.815Z,11.33
2017-08-08T20:28:24.232Z,9.63
2017-08-08T20:30:53.685Z,8.60
2017-08-08T20:33:22.146Z,8.13
2017-08-08T20:35:50.657Z,7.30
2017-08-08T20:38:19.260Z,7.10
2017-08-08T20:40:47.674Z,7.10
2017-08-08T20:43:17.069Z,7.50
2017-08-08T20:45:46.264Z,7.70
2017-08-08T20:48:15.464Z,7.57
2017-08-08T20:50:43.921Z,15.43
2017-08-08T20:53:12.334Z,21.80
2017-08-08T20:55:40.761Z,10.77
2017-08-08T20:58:09.197Z,7.93
2017-08-08T21:00:37.617Z,7.50
2017-08-08T21:03:06.057Z,8.47
2017-08-08T21:05:34.502Z,8.00
2017-08-08T21:08:03.704Z,8.03
2017-08-08T21:10:32.894Z,8.80
2017-08-08T21:13:01.336Z,10.50
2017-08-08T21:15:29.786Z,10.50
2017-08-08T21:17:58.213Z,10.27
2017-08-08T21:20:26.673Z,10.60
2017-08-08T21:22:55.116Z,11.60
2017-08-08T21:25:23.574Z,12.87
2017-08-08T21:27:52.792Z,13.40
2017-08-08T21:30:21.232Z,18.17
2017-08-08T21:32:49.677Z,13.10
2017-08-08T21:35:18.129Z,11.03
2017-08-08T21:37:47.305Z,9.90
2017-08-08T21:40:16.591Z,9.80
2017-08-08T21:42:45.051Z,10.90
2017-08-08T21:45:13.491Z,11.97
2017-08-08T21:47:41.930Z,9.83
2017-08-08T21:50:10.404Z,10.10
2017-08-08T21:52:38.845Z,12.40
2017-08-08T21:55:07.278Z,21.83
2017-08-08T21:57:36.489Z,29.17
2017-08-08T22:00:05.697Z,16.00
2017-08-08T22:02:34.113Z,12.67
2017-08-08T22:05:02.574Z,10.50
2017-08-08T22:07:31.179Z,9.10
2017-08-08T22:09:59.651Z,9.33
2017-08-08T22:12:28.111Z,9.97
2017-08-08T22:14:56.530Z,9.27
2017-08-08T22:17:25.005Z,10.50
2017-08-08T22:19:53.465Z,10.77
2017-08-08T22:22:21.906Z,13.17
2017-08-08T22:24:50.330Z,8.47
2017-08-08T22:27:18.761Z,9.20
2017-08-08T22:29:47.201Z,11.17
2017-08-08T22:32:15.642Z,10.50
2017-08-08T22:34:44.081Z,13.33
2017-08-08T22:37:13.281Z,12.57
2017-08-08T22:39:42.482Z,10.77
2017-08-08T22:42:11.696Z,11.30
2017-08-08T22:44:40.154Z,12.73
2017-08-08T22:47:09.706Z,12.40
2017-08-08T22:49:38.197Z,11.80
2017-08-08T22:52:07.566Z,12.53
2017-08-08T22:54:35.989Z,22.73
2017-08-08T22:57:04.467Z,13.40
2017-08-08T22:59:33.748Z,12.97
2017-08-08T23:02:02.196Z,12.50
2017-08-08T23:04:30.642Z,12.80
2017-08-08T23:06:59.070Z,10.47
2017-08-08T23:09:27.532Z,11.30
2017-08-08T23:11:57.272Z,12.73
2017-08-08T23:14:26.057Z,13.37
2017-08-08T23:16:55.121Z,14.23
2017-08-08T23:19:23.576Z,16.20
2017-08-08T23:21:52.765Z,18.27
2017-08-08T23:24:21.206Z,16.30
2017-08-08T23:26:49.656Z,15.07
2017-08-08T23:29:18.088Z,17.80
2017-08-08T23:31:46.514Z,18.40
2017-08-08T23:34:14.960Z,16.37
2017-08-08T23:36:43.507Z,15.33
2017-08-08T23:39:12.867Z,18.67
2017-08-08T23:41:42.194Z,18.87
2017-08-08T23:44:10.602Z,20.03
2017-08-08T23:46:39.073Z,15.60
2017-08-08T23:49:07.605Z,15.47
2017-08-08T23:51:36.803Z,12.87
2017-08-08T23:54:05.229Z,11.97
2017-08-08T23:56:33.673Z,9.63
2017-08-08T23:59:02.093Z,9.10
